createdAt,value
2023-03-03T00:01:02.552Z,5.40
2023-03-03T00:03:29.334Z,5.43
2023-03-03T00:05:56.214Z,4.85
2023-03-03T00:08:23.243Z,5.63
2023-03-03T00:10:50.547Z,3.38
2023-03-03T00:13:23.175Z,5.53
2023-03-03T00:15:50.806Z,5.22
2023-03-03T00:18:33.536Z,4.68
2023-03-03T00:21:02.165Z,2.70
2023-03-03T00:23:40.675Z,4.28
2023-03-03T00:26:36.527Z,6.47
2023-03-03T00:29:26.134Z,6.40
2023-03-03T00:31:53.000Z,6.35
2023-03-03T00:34:27.300Z,4.65
2023-03-03T00:36:56.555Z,5.45
2023-03-03T00:39:36.786Z,4.60
2023-03-03T00:42:14.738Z,4.97
2023-03-03T00:45:00.894Z,3.22
2023-03-03T00:47:38.430Z,4.97
2023-03-03T00:50:08.019Z,5.70
2023-03-03T00:52:57.962Z,5.25
2023-03-03T00:55:24.910Z,4.72
2023-03-03T00:57:51.635Z,4.22
2023-03-03T01:00:18.677Z,4.57
2023-03-03T01:02:48.823Z,4.28
2023-03-03T01:05:17.823Z,3.28
2023-03-03T01:07:44.571Z,4.25
2023-03-03T01:10:12.079Z,3.35
2023-03-03T01:12:39.282Z,3.47
2023-03-03T01:15:08.464Z,4.35
2023-03-03T01:17:35.418Z,3.30
2023-03-03T01:20:02.578Z,4.28
2023-03-03T01:22:29.369Z,6.75
2023-03-03T01:24:57.620Z,6.88
2023-03-03T01:27:24.926Z,7.43
2023-03-03T01:29:51.770Z,8.30
2023-03-03T01:32:18.670Z,8.57
2023-03-03T01:34:45.448Z,7.80
2023-03-03T01:37:12.223Z,5.95
2023-03-03T01:39:38.997Z,6.88
2023-03-03T01:42:05.868Z,6.10
2023-03-03T01:44:32.785Z,4.43
2023-03-03T01:47:08.006Z,4.32
2023-03-03T01:49:47.364Z,6.22
2023-03-03T01:52:20.454Z,6.85
2023-03-03T01:54:52.614Z,5.85
2023-03-03T01:57:26.325Z,6.65
2023-03-03T01:59:55.326Z,6.30
2023-03-03T02:02:23.950Z,5.95
2023-03-03T02:04:50.952Z,4.80
2023-03-03T02:07:20.009Z,4.53
2023-03-03T02:10:05.550Z,5.00
2023-03-03T02:12:38.744Z,4.95
2023-03-03T02:15:26.131Z,4.25
2023-03-03T02:17:59.035Z,3.42
2023-03-03T02:20:44.912Z,4.53
2023-03-03T02:23:29.834Z,4.70
2023-03-03T02:25:58.808Z,4.13
2023-03-03T02:28:31.755Z,4.13
2023-03-03T02:30:59.969Z,5.03
2023-03-03T02:33:27.895Z,5.30
2023-03-03T02:35:54.804Z,5.60
2023-03-03T02:38:29.872Z,6.40
2023-03-03T02:41:03.268Z,6.32
2023-03-03T02:43:55.173Z,5.65
2023-03-03T02:46:22.014Z,7.60
2023-03-03T02:48:48.991Z,6.22
2023-03-03T02:51:16.175Z,6.93
2023-03-03T02:53:42.974Z,5.10
2023-03-03T02:56:09.781Z,4.15
2023-03-03T02:58:37.786Z,3.20
2023-03-03T03:01:05.243Z,3.05
2023-03-03T03:03:32.045Z,3.28
2023-03-03T03:05:58.861Z,4.80
2023-03-03T03:08:25.675Z,5.90
2023-03-03T03:10:52.453Z,5.00
2023-03-03T03:13:19.257Z,6.25
2023-03-03T03:15:47.033Z,5.97
2023-03-03T03:18:14.681Z,5.55
2023-03-03T03:20:41.719Z,6.72
2023-03-03T03:23:09.904Z,5.63
2023-03-03T03:25:42.732Z,8.77
2023-03-03T03:28:09.569Z,4.95
2023-03-03T03:30:36.600Z,3.85
2023-03-03T03:33:03.482Z,6.93
2023-03-03T03:35:30.272Z,6.70
2023-03-03T03:37:57.059Z,4.95
2023-03-03T03:40:25.560Z,4.32
2023-03-03T03:42:52.917Z,3.92
2023-03-03T03:45:19.902Z,5.90
2023-03-03T03:47:46.828Z,4.28
2023-03-03T03:50:14.112Z,4.05
2023-03-03T03:52:40.990Z,2.85
2023-03-03T03:55:08.187Z,3.97
2023-03-03T03:57:35.135Z,3.72
2023-03-03T04:00:01.964Z,4.65
2023-03-03T04:02:28.775Z,5.50
2023-03-03T04:04:55.619Z,6.95
2023-03-03T04:07:22.471Z,4.55
2023-03-03T04:09:49.402Z,4.75
2023-03-03T04:12:16.195Z,5.93
2023-03-03T04:14:43.038Z,3.92
2023-03-03T04:17:19.935Z,3.25
2023-03-03T04:19:47.106Z,4.20
2023-03-03T04:22:15.236Z,3.38
2023-03-03T04:24:42.271Z,6.38
2023-03-03T04:27:09.554Z,4.88
2023-03-03T04:29:36.664Z,4.10
2023-03-03T04:32:03.517Z,4.13
2023-03-03T04:34:30.296Z,3.83
2023-03-03T04:36:57.046Z,3.42
2023-03-03T04:39:23.846Z,3.47
2023-03-03T04:41:50.695Z,3.38
2023-03-03T04:44:17.493Z,2.42
2023-03-03T04:46:44.270Z,3.30
2023-03-03T04:49:12.531Z,2.13
2023-03-03T04:51:39.486Z,2.40
2023-03-03T04:54:06.329Z,1.77
2023-03-03T04:56:33.195Z,2.60
2023-03-03T04:58:59.961Z,2.03
2023-03-03T05:01:27.158Z,2.13
2023-03-03T05:03:53.994Z,4.85
2023-03-03T05:06:20.868Z,2.85
2023-03-03T05:08:47.647Z,2.80
2023-03-03T05:11:14.426Z,4.03
2023-03-03T05:13:41.426Z,3.88
2023-03-03T05:16:09.076Z,4.15
2023-03-03T05:18:36.166Z,4.13
2023-03-03T05:21:03.103Z,3.30
2023-03-03T05:23:30.222Z,3.00
2023-03-03T05:25:57.238Z,5.82
2023-03-03T05:28:24.061Z,3.45
2023-03-03T05:30:50.834Z,3.10
2023-03-03T05:33:18.172Z,2.65
2023-03-03T05:35:45.487Z,5.55
2023-03-03T05:38:12.574Z,6.10
2023-03-03T05:40:39.628Z,5.47
2023-03-03T05:43:07.171Z,6.15
2023-03-03T05:45:35.369Z,5.78
2023-03-03T05:48:03.299Z,7.78
2023-03-03T05:50:30.501Z,4.45
2023-03-03T05:52:57.821Z,6.40
2023-03-03T05:55:24.817Z,8.18
2023-03-03T05:57:51.564Z,6.15
2023-03-03T06:00:18.888Z,8.90
2023-03-03T06:02:45.799Z,6.47
2023-03-03T06:05:12.732Z,7.70
2023-03-03T06:07:39.816Z,7.35
2023-03-03T06:10:07.580Z,6.80
2023-03-03T06:12:34.561Z,8.45
2023-03-03T06:15:01.745Z,7.03
2023-03-03T06:17:28.557Z,8.68
2023-03-03T06:19:55.258Z,8.00
2023-03-03T06:22:22.053Z,6.18
2023-03-03T06:24:48.793Z,6.05
2023-03-03T06:27:15.565Z,5.30
2023-03-03T06:29:42.372Z,3.28
2023-03-03T06:32:09.356Z,4.75
2023-03-03T06:34:36.207Z,5.03
2023-03-03T06:37:03.054Z,4.28
2023-03-03T06:39:29.917Z,6.03
2023-03-03T06:41:56.725Z,5.15
2023-03-03T06:44:23.773Z,2.58
2023-03-03T06:46:50.708Z,2.58
2023-03-03T06:49:17.708Z,4.30
2023-03-03T06:51:46.364Z,4.13
2023-03-03T06:54:16.342Z,4.25
2023-03-03T06:56:44.606Z,2.88
2023-03-03T06:59:20.076Z,3.65
2023-03-03T07:01:49.315Z,2.95
2023-03-03T07:04:21.600Z,2.88
2023-03-03T07:06:48.461Z,2.22
2023-03-03T07:09:24.109Z,2.05
2023-03-03T07:11:57.822Z,1.98
2023-03-03T07:14:24.677Z,2.83
2023-03-03T07:16:58.115Z,1.75
2023-03-03T07:19:34.070Z,2.50
2023-03-03T07:22:22.485Z,3.25
2023-03-03T07:24:53.012Z,3.28
2023-03-03T07:27:22.735Z,2.15
2023-03-03T07:29:51.662Z,2.15
2023-03-03T07:32:46.302Z,1.88
2023-03-03T07:35:43.157Z,0.95
2023-03-03T07:38:36.330Z,2.55
2023-03-03T07:41:14.590Z,2.90
2023-03-03T07:43:51.139Z,3.00
2023-03-03T07:46:27.635Z,3.10
2023-03-03T07:48:56.213Z,1.75
2023-03-03T07:51:31.900Z,2.00
2023-03-03T07:54:18.121Z,1.85
2023-03-03T07:56:45.885Z,1.50
2023-03-03T07:59:22.857Z,2.35
2023-03-03T08:01:58.709Z,1.65
2023-03-03T08:04:40.638Z,2.10
2023-03-03T08:07:16.687Z,1.92
2023-03-03T08:09:45.181Z,2.58
2023-03-03T08:12:28.804Z,2.05
2023-03-03T08:14:58.139Z,3.40
2023-03-03T08:17:35.742Z,6.53
2023-03-03T08:20:09.050Z,6.85
2023-03-03T08:22:36.213Z,6.00
2023-03-03T08:25:03.334Z,6.40
2023-03-03T08:27:30.169Z,5.03
2023-03-03T08:29:57.031Z,4.15
2023-03-03T08:32:24.158Z,3.95
2023-03-03T08:34:50.898Z,4.65
2023-03-03T08:37:17.657Z,6.18
2023-03-03T08:39:44.536Z,8.48
2023-03-03T08:42:11.293Z,6.63
2023-03-03T08:44:38.197Z,8.07
2023-03-03T08:47:05.125Z,13.50
2023-03-03T08:49:31.955Z,10.95
2023-03-03T08:52:00.792Z,11.60
2023-03-03T08:54:27.738Z,16.45
2023-03-03T08:56:54.547Z,14.40
2023-03-03T08:59:22.419Z,19.83
2023-03-03T09:01:49.453Z,18.33
2023-03-03T09:04:16.303Z,20.48
2023-03-03T09:06:43.095Z,20.95
2023-03-03T09:09:09.904Z,17.33
2023-03-03T09:11:36.925Z,15.32
2023-03-03T09:14:14.987Z,13.95
2023-03-03T09:16:49.913Z,12.25
2023-03-03T09:19:37.557Z,9.20
2023-03-03T09:22:25.909Z,16.33
2023-03-03T09:24:55.555Z,16.52
2023-03-03T09:27:34.046Z,17.23
2023-03-03T09:30:36.424Z,22.38
2023-03-03T09:33:24.684Z,14.63
2023-03-03T09:36:30.517Z,18.60
2023-03-03T09:38:58.589Z,20.25
2023-03-03T09:41:43.971Z,20.67
2023-03-03T09:44:20.852Z,15.85
2023-03-03T09:46:59.545Z,15.75
2023-03-03T09:49:36.894Z,17.65
2023-03-03T09:52:25.478Z,26.27
2023-03-03T09:55:17.274Z,26.52
2023-03-03T09:58:10.440Z,25.92
2023-03-03T10:00:56.280Z,26.70
2023-03-03T10:03:31.959Z,24.17
2023-03-03T10:06:23.701Z,27.58
2023-03-03T10:09:33.265Z,27.63
2023-03-03T10:12:26.449Z,23.65
2023-03-03T10:15:18.556Z,22.98
2023-03-03T10:17:54.224Z,27.80
2023-03-03T10:20:47.603Z,22.25
2023-03-03T10:23:24.237Z,22.70
2023-03-03T10:25:53.769Z,21.30
2023-03-03T10:28:46.903Z,21.42
2023-03-03T10:31:49.449Z,23.63
2023-03-03T10:34:31.301Z,25.95
2023-03-03T10:37:52.296Z,28.02
2023-03-03T10:40:51.405Z,24.83
2023-03-03T10:43:31.890Z,26.65
2023-03-03T10:46:02.063Z,27.25
2023-03-03T10:48:31.643Z,22.48
2023-03-03T10:51:19.688Z,23.92
2023-03-03T10:54:20.025Z,25.13
2023-03-03T10:56:53.866Z,28.63
2023-03-03T10:59:37.027Z,23.38
2023-03-03T11:02:26.621Z,21.13
2023-03-03T11:05:02.419Z,24.60
2023-03-03T11:07:41.208Z,25.45
2023-03-03T11:10:29.023Z,18.90
2023-03-03T11:13:16.585Z,25.65
2023-03-03T11:15:50.037Z,27.27
2023-03-03T11:18:31.789Z,25.17
2023-03-03T11:21:21.594Z,25.88
2023-03-03T11:24:14.774Z,24.15
2023-03-03T11:27:17.877Z,23.02
2023-03-03T11:30:14.486Z,26.55
2023-03-03T11:33:04.809Z,26.05
2023-03-03T11:35:43.286Z,24.27
2023-03-03T11:38:32.687Z,18.30
2023-03-03T11:41:12.017Z,16.17
2023-03-03T11:43:44.821Z,23.60
2023-03-03T11:46:20.526Z,29.73
2023-03-03T11:49:06.653Z,29.73
2023-03-03T11:52:02.531Z,24.88
2023-03-03T11:54:58.824Z,33.40
2023-03-03T11:57:46.707Z,31.05
2023-03-03T12:00:14.061Z,29.83
2023-03-03T12:02:58.810Z,29.88
2023-03-03T12:05:39.490Z,27.92
2023-03-03T12:08:36.930Z,24.20
2023-03-03T12:11:06.571Z,28.40
2023-03-03T12:13:51.029Z,24.98
2023-03-03T12:16:44.554Z,24.02
2023-03-03T12:19:21.879Z,27.45
2023-03-03T12:22:21.876Z,26.75
2023-03-03T12:25:27.626Z,21.85
2023-03-03T12:28:10.844Z,23.73
2023-03-03T12:31:02.509Z,24.13
2023-03-03T12:33:35.422Z,19.90
2023-03-03T12:36:37.538Z,19.25
2023-03-03T12:39:28.885Z,23.58
2023-03-03T12:42:19.667Z,26.70
2023-03-03T12:45:24.094Z,22.80
2023-03-03T12:48:08.842Z,18.02
2023-03-03T12:50:59.247Z,20.38
2023-03-03T12:53:44.315Z,25.48
2023-03-03T12:56:23.884Z,25.15
2023-03-03T12:58:56.884Z,25.70
2023-03-03T13:02:01.840Z,24.63
2023-03-03T13:04:32.524Z,20.92
2023-03-03T13:06:59.351Z,18.35
2023-03-03T13:09:56.446Z,15.18
2023-03-03T13:12:52.237Z,22.65
2023-03-03T13:16:07.103Z,20.48
2023-03-03T13:18:54.000Z,20.70
2023-03-03T13:21:35.125Z,18.92
2023-03-03T13:24:17.999Z,19.30
2023-03-03T13:26:58.586Z,23.67
2023-03-03T13:29:33.248Z,23.70
2023-03-03T13:32:08.630Z,23.80
2023-03-03T13:34:41.415Z,18.58
2023-03-03T13:37:29.243Z,18.90
2023-03-03T13:40:13.605Z,18.00
2023-03-03T13:42:42.089Z,18.05
2023-03-03T13:45:37.595Z,20.10
2023-03-03T13:48:35.416Z,18.80
2023-03-03T13:51:15.393Z,13.98
2023-03-03T13:54:00.923Z,14.93
2023-03-03T13:56:37.584Z,14.75
2023-03-03T13:59:20.287Z,14.18
2023-03-03T14:01:47.478Z,16.25
2023-03-03T14:04:33.332Z,24.88
2023-03-03T14:07:04.834Z,20.05
2023-03-03T14:09:32.056Z,15.75
2023-03-03T14:12:08.630Z,18.75
2023-03-03T14:14:51.144Z,15.00
2023-03-03T14:17:27.620Z,15.82
2023-03-03T14:20:04.262Z,14.52
2023-03-03T14:22:40.731Z,14.48
2023-03-03T14:25:12.564Z,13.60
2023-03-03T14:27:45.887Z,14.13
2023-03-03T14:30:25.352Z,16.35
2023-03-03T14:33:10.502Z,13.38
2023-03-03T14:35:39.358Z,13.73
2023-03-03T14:38:09.598Z,16.42
2023-03-03T14:40:39.032Z,20.20
2023-03-03T14:43:19.959Z,13.23
2023-03-03T14:45:47.259Z,14.38
2023-03-03T14:48:14.511Z,13.60
2023-03-03T14:50:42.976Z,14.30
2023-03-03T14:53:15.536Z,14.50
2023-03-03T14:55:44.173Z,13.93
2023-03-03T14:58:31.706Z,15.40
2023-03-03T15:01:09.148Z,11.98
2023-03-03T15:03:39.757Z,12.98
2023-03-03T15:06:13.039Z,10.15
2023-03-03T15:08:41.385Z,11.13
2023-03-03T15:11:28.448Z,11.20
2023-03-03T15:14:05.042Z,14.00
2023-03-03T15:16:35.011Z,10.30
2023-03-03T15:19:14.198Z,10.57
2023-03-03T15:21:57.956Z,12.35
2023-03-03T15:24:28.063Z,11.35
2023-03-03T15:26:55.493Z,10.00
2023-03-03T15:29:22.711Z,11.98
2023-03-03T15:32:02.189Z,9.25
2023-03-03T15:34:29.516Z,13.20
2023-03-03T15:37:17.000Z,13.55
2023-03-03T15:39:54.634Z,12.88
2023-03-03T15:42:22.649Z,13.70
2023-03-03T15:45:09.077Z,13.15
2023-03-03T15:47:39.412Z,12.77
2023-03-03T15:50:09.733Z,12.38
2023-03-03T15:52:53.182Z,10.35
2023-03-03T15:55:20.413Z,10.20
2023-03-03T15:58:00.589Z,11.63
2023-03-03T16:00:30.884Z,10.10
2023-03-03T16:03:02.509Z,13.60
2023-03-03T16:05:40.457Z,14.25
2023-03-03T16:08:14.362Z,10.73
2023-03-03T16:11:00.307Z,11.50
2023-03-03T16:13:27.448Z,12.55
2023-03-03T16:15:57.425Z,13.52
2023-03-03T16:18:34.432Z,10.35
2023-03-03T16:21:20.639Z,8.60
2023-03-03T16:23:49.765Z,8.50
2023-03-03T16:26:29.585Z,10.57
2023-03-03T16:29:15.706Z,9.57
2023-03-03T16:31:52.694Z,10.73
2023-03-03T16:34:22.761Z,11.65
2023-03-03T16:36:58.586Z,12.90
2023-03-03T16:39:26.028Z,14.05
2023-03-03T16:42:16.186Z,17.02
2023-03-03T16:44:51.945Z,15.45
2023-03-03T16:47:18.693Z,17.42
2023-03-03T16:49:45.635Z,17.30
2023-03-03T16:52:20.130Z,16.65
2023-03-03T16:55:21.339Z,14.55
2023-03-03T16:58:06.367Z,13.20
2023-03-03T17:01:00.240Z,14.02
2023-03-03T17:03:32.915Z,12.98
2023-03-03T17:06:23.373Z,11.75
2023-03-03T17:08:53.319Z,10.05
2023-03-03T17:11:46.201Z,9.30
2023-03-03T17:14:19.476Z,8.13
2023-03-03T17:16:53.812Z,8.02
2023-03-03T17:19:38.481Z,7.57
2023-03-03T17:22:30.082Z,7.88
2023-03-03T17:25:05.937Z,10.05
2023-03-03T17:27:59.514Z,7.32
2023-03-03T17:30:44.047Z,6.85
2023-03-03T17:33:44.325Z,6.50
2023-03-03T17:36:26.312Z,7.30
2023-03-03T17:39:36.716Z,7.35
2023-03-03T17:42:34.308Z,8.77
2023-03-03T17:45:04.463Z,10.88
2023-03-03T17:47:43.226Z,7.68
2023-03-03T17:50:34.955Z,8.25
2023-03-03T17:53:10.775Z,8.77
2023-03-03T17:55:58.489Z,8.90
2023-03-03T17:58:37.132Z,8.40
2023-03-03T18:01:15.809Z,10.30
2023-03-03T18:04:00.981Z,9.73
2023-03-03T18:06:56.600Z,9.80
2023-03-03T18:09:35.588Z,7.88
2023-03-03T18:12:20.417Z,11.10
2023-03-03T18:14:53.141Z,10.68
2023-03-03T18:17:30.770Z,8.10
2023-03-03T18:20:14.219Z,8.63
2023-03-03T18:22:48.495Z,8.32
2023-03-03T18:25:18.157Z,9.88
2023-03-03T18:28:01.504Z,9.30
2023-03-03T18:30:51.875Z,11.00
2023-03-03T18:33:34.840Z,8.60
2023-03-03T18:36:35.244Z,11.68
2023-03-03T18:39:03.288Z,9.05
2023-03-03T18:41:54.392Z,12.02
2023-03-03T18:44:29.542Z,11.68
2023-03-03T18:46:58.845Z,10.10
2023-03-03T18:49:48.844Z,13.07
2023-03-03T18:52:21.424Z,13.98
2023-03-03T18:55:10.077Z,13.88
2023-03-03T18:57:38.333Z,13.98
2023-03-03T19:00:29.468Z,11.40
2023-03-03T19:02:59.542Z,11.90
2023-03-03T19:05:37.173Z,10.55
2023-03-03T19:08:25.969Z,10.02
2023-03-03T19:11:00.469Z,9.70
2023-03-03T19:13:33.551Z,10.57
2023-03-03T19:16:30.631Z,9.15
2023-03-03T19:19:13.035Z,7.38
2023-03-03T19:21:41.033Z,7.63
2023-03-03T19:24:22.941Z,10.68
2023-03-03T19:27:04.547Z,8.40
2023-03-03T19:29:53.430Z,7.72
2023-03-03T19:32:41.892Z,9.43
2023-03-03T19:35:44.059Z,7.70
2023-03-03T19:38:58.017Z,9.05
2023-03-03T19:41:30.763Z,10.15
2023-03-03T19:44:16.271Z,9.20
2023-03-03T19:47:03.636Z,10.05
2023-03-03T19:49:39.003Z,11.73
2023-03-03T19:52:22.148Z,9.68
2023-03-03T19:55:16.324Z,12.18
2023-03-03T19:58:01.740Z,10.23
2023-03-03T20:01:02.524Z,11.18
2023-03-03T20:03:59.761Z,9.85
2023-03-03T20:06:40.453Z,8.65
2023-03-03T20:09:10.131Z,9.82
2023-03-03T20:12:02.617Z,12.85
2023-03-03T20:14:34.911Z,11.98
2023-03-03T20:17:24.802Z,12.35
2023-03-03T20:20:05.328Z,9.57
2023-03-03T20:22:35.956Z,12.32
2023-03-03T20:25:21.762Z,14.52
2023-03-03T20:28:39.694Z,11.25
2023-03-03T20:31:29.908Z,14.65
2023-03-03T20:34:29.273Z,13.27
2023-03-03T20:37:19.099Z,12.57
2023-03-03T20:40:05.228Z,17.40
2023-03-03T20:42:38.129Z,14.25
2023-03-03T20:45:14.729Z,13.50
2023-03-03T20:48:14.252Z,11.30
2023-03-03T20:51:07.746Z,13.38
2023-03-03T20:54:07.449Z,12.60
2023-03-03T20:56:59.357Z,13.45
2023-03-03T20:59:48.948Z,14.85
2023-03-03T21:02:21.761Z,12.45
2023-03-03T21:05:16.789Z,14.80
2023-03-03T21:08:05.177Z,15.60
2023-03-03T21:10:37.154Z,16.95
2023-03-03T21:13:25.712Z,15.43
2023-03-03T21:16:16.821Z,14.98
2023-03-03T21:19:03.266Z,13.90
2023-03-03T21:21:39.561Z,12.45
2023-03-03T21:24:07.624Z,13.27
2023-03-03T21:26:49.268Z,14.07
2023-03-03T21:29:19.059Z,14.80
2023-03-03T21:32:07.188Z,12.38
2023-03-03T21:34:40.380Z,12.60
2023-03-03T21:37:10.102Z,11.80
2023-03-03T21:39:42.762Z,12.35
2023-03-03T21:42:15.545Z,13.10
2023-03-03T21:44:49.790Z,12.40
2023-03-03T21:47:27.171Z,11.07
2023-03-03T21:49:54.227Z,12.68
2023-03-03T21:52:22.432Z,14.60
2023-03-03T21:54:51.820Z,13.75
2023-03-03T21:57:19.374Z,12.43
2023-03-03T21:59:46.212Z,15.32
2023-03-03T22:02:13.144Z,11.25
2023-03-03T22:04:40.922Z,9.63
2023-03-03T22:07:08.529Z,9.70
2023-03-03T22:09:36.099Z,9.25
2023-03-03T22:12:03.794Z,10.23
2023-03-03T22:14:30.833Z,9.32
2023-03-03T22:16:57.791Z,11.18
2023-03-03T22:19:25.115Z,10.52
2023-03-03T22:21:52.185Z,11.85
2023-03-03T22:24:19.097Z,11.40
2023-03-03T22:26:45.900Z,11.40
2023-03-03T22:29:12.714Z,12.38
2023-03-03T22:31:39.755Z,14.50
2023-03-03T22:34:06.805Z,12.75
2023-03-03T22:36:33.619Z,10.45
2023-03-03T22:39:01.093Z,12.73
2023-03-03T22:41:28.062Z,13.85
2023-03-03T22:43:54.779Z,11.73
2023-03-03T22:46:21.661Z,12.50
2023-03-03T22:48:48.533Z,12.40
2023-03-03T22:51:15.378Z,10.63
2023-03-03T22:53:42.231Z,9.73
2023-03-03T22:56:09.020Z,11.95
2023-03-03T22:58:35.885Z,10.60
2023-03-03T23:01:03.538Z,10.10
2023-03-03T23:03:32.435Z,11.20
2023-03-03T23:05:59.752Z,12.52
2023-03-03T23:08:27.602Z,12.50
2023-03-03T23:10:54.378Z,12.73
2023-03-03T23:13:21.265Z,12.77
2023-03-03T23:15:48.089Z,13.18
2023-03-03T23:18:15.062Z,14.27
2023-03-03T23:20:45.820Z,13.52
2023-03-03T23:23:12.740Z,13.32
2023-03-03T23:25:39.562Z,13.25
2023-03-03T23:28:06.646Z,13.90
2023-03-03T23:30:33.468Z,15.57
2023-03-03T23:33:00.257Z,15.65
2023-03-03T23:35:27.088Z,14.20
2023-03-03T23:37:53.956Z,14.18
2023-03-03T23:40:20.814Z,20.50
2023-03-03T23:42:47.622Z,16.33
2023-03-03T23:45:14.542Z,18.63
2023-03-03T23:47:41.565Z,15.45
2023-03-03T23:50:10.758Z,17.90
2023-03-03T23:52:37.563Z,20.90
2023-03-03T23:55:05.668Z,15.63
2023-03-03T23:57:32.800Z,14.07
2023-03-03T23:59:59.583Z,11.60
